createdAt,value
2018-03-21T00:01:53.655Z,8.77
2018-03-21T00:04:22.828Z,7.77
2018-03-21T00:06:51.995Z,7.73
2018-03-21T00:09:21.189Z,11.80
2018-03-21T00:11:50.352Z,9.37
2018-03-21T00:14:19.510Z,9.87
2018-03-21T00:16:48.708Z,7.87
2018-03-21T00:19:17.857Z,7.93
2018-03-21T00:21:47.025Z,8.17
2018-03-21T00:24:16.172Z,6.47
2018-03-21T00:26:45.340Z,8.43
2018-03-21T00:29:14.488Z,7.87
2018-03-21T00:31:43.672Z,7.13
2018-03-21T00:34:12.824Z,10.37
2018-03-21T00:36:42.008Z,11.40
2018-03-21T00:39:11.159Z,10.80
2018-03-21T00:41:40.324Z,9.50
2018-03-21T00:44:09.468Z,8.03
2018-03-21T00:46:38.648Z,15.73
2018-03-21T00:49:07.859Z,12.13
2018-03-21T00:51:37.039Z,8.03
2018-03-21T00:54:06.183Z,7.00
2018-03-21T00:56:35.348Z,7.63
2018-03-21T00:59:04.508Z,8.63
2018-03-21T01:01:33.736Z,14.50
2018-03-21T01:04:02.890Z,7.67
2018-03-21T01:06:32.060Z,7.57
2018-03-21T01:09:01.216Z,14.87
2018-03-21T01:11:30.420Z,7.57
2018-03-21T01:13:59.579Z,7.23
2018-03-21T01:16:28.756Z,11.93
2018-03-21T01:18:57.903Z,12.43
2018-03-21T01:21:27.076Z,13.80
2018-03-21T01:23:56.233Z,9.00
2018-03-21T01:26:25.422Z,8.90
2018-03-21T01:28:54.632Z,8.57
2018-03-21T01:31:23.759Z,12.80
2018-03-21T01:33:52.912Z,8.00
2018-03-21T01:36:22.088Z,9.50
2018-03-21T01:38:51.257Z,8.27
2018-03-21T01:41:20.439Z,12.67
2018-03-21T01:43:49.595Z,10.77
2018-03-21T01:46:18.776Z,8.13
2018-03-21T01:48:47.929Z,9.53
2018-03-21T01:51:17.111Z,8.43
2018-03-21T01:53:47.184Z,10.63
2018-03-21T01:56:16.395Z,7.87
2018-03-21T01:58:45.573Z,8.53
2018-03-21T02:01:14.758Z,10.63
2018-03-21T02:03:43.916Z,6.90
2018-03-21T02:06:13.091Z,10.70
2018-03-21T02:08:42.272Z,7.23
2018-03-21T02:11:11.456Z,7.93
2018-03-21T02:13:40.605Z,7.43
2018-03-21T02:16:09.781Z,8.33
2018-03-21T02:18:38.928Z,6.80
2018-03-21T02:21:08.100Z,9.13
2018-03-21T02:23:37.272Z,7.87
2018-03-21T02:26:06.448Z,11.90
2018-03-21T02:28:35.599Z,8.90
2018-03-21T02:31:04.794Z,9.90
2018-03-21T02:33:33.952Z,11.43
2018-03-21T02:36:03.122Z,6.93
2018-03-21T02:38:32.309Z,8.37
2018-03-21T02:41:01.507Z,6.70
2018-03-21T02:43:30.670Z,9.10
2018-03-21T02:45:59.851Z,11.07
2018-03-21T02:48:29.005Z,7.87
2018-03-21T02:50:58.201Z,11.27
2018-03-21T02:53:27.361Z,11.77
2018-03-21T02:55:56.536Z,6.23
2018-03-21T02:58:25.694Z,9.23
2018-03-21T03:00:54.869Z,8.07
2018-03-21T03:03:24.033Z,10.80
2018-03-21T03:05:53.222Z,9.67
2018-03-21T03:08:22.385Z,6.37
2018-03-21T03:10:51.557Z,8.53
2018-03-21T03:13:20.713Z,7.80
2018-03-21T03:15:49.900Z,9.97
2018-03-21T03:18:19.073Z,5.93
2018-03-21T03:20:48.264Z,10.47
2018-03-21T03:23:17.425Z,10.37
2018-03-21T03:25:46.599Z,10.63
2018-03-21T03:28:15.756Z,10.83
2018-03-21T03:30:44.937Z,11.60
2018-03-21T03:33:14.111Z,10.27
2018-03-21T03:35:43.293Z,11.40
2018-03-21T03:38:12.449Z,9.77
2018-03-21T03:40:41.629Z,11.53
2018-03-21T03:43:10.828Z,7.53
2018-03-21T03:45:40.013Z,9.87
2018-03-21T03:48:09.185Z,11.73
2018-03-21T03:50:38.365Z,13.10
2018-03-21T03:53:07.524Z,11.43
2018-03-21T03:55:36.720Z,9.10
2018-03-21T03:58:05.879Z,11.60
2018-03-21T04:00:35.062Z,12.03
2018-03-21T04:03:04.227Z,13.13
2018-03-21T04:05:33.428Z,12.80
2018-03-21T04:08:02.594Z,10.50
2018-03-21T04:10:31.752Z,8.50
2018-03-21T04:13:00.924Z,12.70
2018-03-21T04:15:30.096Z,11.17
2018-03-21T04:17:59.280Z,10.30
2018-03-21T04:20:28.449Z,10.73
2018-03-21T04:22:57.630Z,7.37
2018-03-21T04:25:26.797Z,11.30
2018-03-21T04:27:55.987Z,8.57
2018-03-21T04:30:25.139Z,11.23
2018-03-21T04:32:54.322Z,6.67
2018-03-21T04:35:23.484Z,10.47
2018-03-21T04:37:52.656Z,9.03
2018-03-21T04:40:21.825Z,10.17
2018-03-21T04:42:51.002Z,12.57
2018-03-21T04:45:20.167Z,13.73
2018-03-21T04:47:49.351Z,14.37
2018-03-21T04:50:18.524Z,10.07
2018-03-21T04:52:47.702Z,13.70
2018-03-21T04:55:16.860Z,7.57
2018-03-21T04:57:46.043Z,8.70
2018-03-21T05:00:15.229Z,15.47
2018-03-21T05:02:44.417Z,10.30
2018-03-21T05:05:13.573Z,8.33
2018-03-21T05:07:42.749Z,8.60
2018-03-21T05:10:11.909Z,11.10
2018-03-21T05:12:41.091Z,10.07
2018-03-21T05:15:10.261Z,12.47
2018-03-21T05:17:39.431Z,15.77
2018-03-21T05:20:08.588Z,7.07
2018-03-21T05:22:37.765Z,8.43
2018-03-21T05:25:06.923Z,12.33
2018-03-21T05:27:36.104Z,14.27
2018-03-21T05:30:05.255Z,11.87
2018-03-21T05:32:34.428Z,10.67
2018-03-21T05:35:03.902Z,14.73
2018-03-21T05:37:33.080Z,10.10
2018-03-21T05:40:02.228Z,8.33
2018-03-21T05:42:31.452Z,14.97
2018-03-21T05:45:00.609Z,12.30
2018-03-21T05:47:29.784Z,9.67
2018-03-21T05:49:58.936Z,9.73
2018-03-21T05:52:28.134Z,9.67
2018-03-21T05:54:57.300Z,12.33
2018-03-21T05:57:26.475Z,12.07
2018-03-21T05:59:55.637Z,9.30
2018-03-21T06:02:24.817Z,10.43
2018-03-21T06:04:53.979Z,13.40
2018-03-21T06:07:23.167Z,8.87
2018-03-21T06:09:52.324Z,16.07
2018-03-21T06:12:21.498Z,7.50
2018-03-21T06:14:50.654Z,8.63
2018-03-21T06:17:19.835Z,11.00
2018-03-21T06:19:48.989Z,21.53
2018-03-21T06:22:18.173Z,13.07
2018-03-21T06:24:47.345Z,12.33
2018-03-21T06:27:16.516Z,9.50
2018-03-21T06:29:45.673Z,10.00
2018-03-21T06:32:14.840Z,5.33
2018-03-21T06:34:44.006Z,15.30
2018-03-21T06:37:13.179Z,9.70
2018-03-21T06:39:42.336Z,13.50
2018-03-21T06:42:11.510Z,9.53
2018-03-21T06:44:40.673Z,11.83
2018-03-21T06:47:09.877Z,11.10
2018-03-21T06:49:39.046Z,17.23
2018-03-21T06:52:08.233Z,13.53
2018-03-21T06:54:37.388Z,15.13
2018-03-21T06:57:06.569Z,14.43
2018-03-21T06:59:35.729Z,7.23
2018-03-21T07:02:04.912Z,9.43
2018-03-21T07:04:34.076Z,13.10
2018-03-21T07:07:03.247Z,10.40
2018-03-21T07:09:32.400Z,11.93
2018-03-21T07:12:01.581Z,11.20
2018-03-21T07:14:36.528Z,10.80
2018-03-21T07:17:05.708Z,9.23
2018-03-21T07:19:34.864Z,9.07
2018-03-21T07:22:04.073Z,11.90
2018-03-21T07:24:33.233Z,9.20
2018-03-21T07:27:02.414Z,9.50
2018-03-21T07:29:31.576Z,8.27
2018-03-21T07:32:00.808Z,8.93
2018-03-21T07:34:29.976Z,8.23
2018-03-21T07:36:59.173Z,9.33
2018-03-21T07:39:28.335Z,10.03
2018-03-21T07:41:57.531Z,10.43
2018-03-21T07:44:26.779Z,9.50
2018-03-21T07:46:57.183Z,7.80
2018-03-21T07:49:26.345Z,6.90
2018-03-21T07:51:55.516Z,8.10
2018-03-21T07:54:25.507Z,7.07
2018-03-21T07:56:54.672Z,8.03
2018-03-21T07:59:23.844Z,7.70
2018-03-21T08:01:53.009Z,10.40
2018-03-21T08:04:22.196Z,9.17
2018-03-21T08:06:51.364Z,8.03
2018-03-21T08:09:20.535Z,9.43
2018-03-21T08:11:49.700Z,7.73
2018-03-21T08:14:18.868Z,11.20
2018-03-21T08:16:48.024Z,7.73
2018-03-21T08:19:17.201Z,9.97
2018-03-21T08:21:46.356Z,6.33
2018-03-21T08:24:15.545Z,6.90
2018-03-21T08:26:44.713Z,10.23
2018-03-21T08:29:13.880Z,14.33
2018-03-21T08:31:43.048Z,12.13
2018-03-21T08:34:12.252Z,11.87
2018-03-21T08:36:41.417Z,15.40
2018-03-21T08:39:10.599Z,9.40
2018-03-21T08:41:39.758Z,10.03
2018-03-21T08:44:08.932Z,9.00
2018-03-21T08:46:38.109Z,9.07
2018-03-21T08:49:07.308Z,9.63
2018-03-21T08:51:36.460Z,7.87
2018-03-21T08:54:05.680Z,8.53
2018-03-21T08:56:34.834Z,7.93
2018-03-21T08:59:04.009Z,9.23
2018-03-21T09:01:33.176Z,10.00
2018-03-21T09:04:02.348Z,8.60
2018-03-21T09:06:31.515Z,10.57
2018-03-21T09:09:00.700Z,10.50
2018-03-21T09:11:29.861Z,12.53
2018-03-21T09:13:59.043Z,11.97
2018-03-21T09:16:28.215Z,11.83
2018-03-21T09:18:57.397Z,9.87
2018-03-21T09:21:26.570Z,13.90
2018-03-21T09:23:55.757Z,10.73
2018-03-21T09:26:24.965Z,10.77
2018-03-21T09:28:54.145Z,10.67
2018-03-21T09:31:23.296Z,9.33
2018-03-21T09:33:52.468Z,10.50
2018-03-21T09:36:21.625Z,10.03
2018-03-21T09:38:50.816Z,8.47
2018-03-21T09:41:19.971Z,8.03
2018-03-21T09:43:49.145Z,8.37
2018-03-21T09:46:18.305Z,8.03
2018-03-21T09:48:47.485Z,9.70
2018-03-21T09:51:16.654Z,7.30
2018-03-21T09:53:45.835Z,7.80
2018-03-21T09:56:14.998Z,7.17
2018-03-21T09:58:44.176Z,7.63
2018-03-21T10:01:13.332Z,8.13
2018-03-21T10:03:42.517Z,8.03
2018-03-21T10:06:11.677Z,7.13
2018-03-21T10:08:40.916Z,8.17
2018-03-21T10:11:10.045Z,6.67
2018-03-21T10:13:39.211Z,8.67
2018-03-21T10:16:08.377Z,8.53
2018-03-21T10:18:37.553Z,9.17
2018-03-21T10:21:06.741Z,7.57
2018-03-21T10:23:35.917Z,8.07
2018-03-21T10:26:05.090Z,8.50
2018-03-21T10:28:34.277Z,8.67
2018-03-21T10:31:03.434Z,8.40
2018-03-21T10:33:32.628Z,9.17
2018-03-21T10:36:01.789Z,11.30
2018-03-21T10:38:30.965Z,8.50
2018-03-21T10:41:00.120Z,8.67
2018-03-21T10:43:29.294Z,8.67
2018-03-21T10:45:58.470Z,8.80
2018-03-21T10:48:27.702Z,8.93
2018-03-21T10:50:56.863Z,11.20
2018-03-21T10:53:26.085Z,10.10
2018-03-21T10:55:55.225Z,9.80
2018-03-21T10:58:24.413Z,10.77
2018-03-21T11:00:53.580Z,11.33
2018-03-21T11:03:22.760Z,12.03
2018-03-21T11:05:51.965Z,9.53
2018-03-21T11:08:21.131Z,11.50
2018-03-21T11:10:50.297Z,8.73
2018-03-21T11:13:19.472Z,11.70
2018-03-21T11:15:48.628Z,11.07
2018-03-21T11:18:17.816Z,12.43
2018-03-21T11:20:46.968Z,11.10
2018-03-21T11:23:16.167Z,11.67
2018-03-21T11:25:45.348Z,14.57
2018-03-21T11:28:14.504Z,12.53
2018-03-21T11:30:43.685Z,13.07
2018-03-21T11:33:12.894Z,17.83
2018-03-21T11:35:42.077Z,12.33
2018-03-21T11:38:11.233Z,14.87
2018-03-21T11:40:40.697Z,10.97
2018-03-21T11:43:09.869Z,12.37
2018-03-21T11:45:39.056Z,17.70
2018-03-21T11:48:08.213Z,11.47
2018-03-21T11:50:37.388Z,14.07
2018-03-21T11:53:06.544Z,22.07
2018-03-21T11:55:35.735Z,13.20
2018-03-21T11:58:04.903Z,19.67
2018-03-21T12:00:34.072Z,15.50
2018-03-21T12:03:03.237Z,12.63
2018-03-21T12:05:32.414Z,12.80
2018-03-21T12:08:01.573Z,14.10
2018-03-21T12:10:30.761Z,14.57
2018-03-21T12:12:59.925Z,14.43
2018-03-21T12:15:29.105Z,14.27
2018-03-21T12:17:58.269Z,15.93
2018-03-21T12:20:27.448Z,17.03
2018-03-21T12:22:56.617Z,13.97
2018-03-21T12:25:25.793Z,14.07
2018-03-21T12:27:54.953Z,18.33
2018-03-21T12:30:24.137Z,17.60
2018-03-21T12:32:53.324Z,12.00
2018-03-21T12:35:22.516Z,14.97
2018-03-21T12:37:51.672Z,14.90
2018-03-21T12:40:20.865Z,11.67
2018-03-21T12:42:50.023Z,14.87
2018-03-21T12:45:19.192Z,14.93
2018-03-21T12:47:48.401Z,11.73
2018-03-21T12:50:17.587Z,12.83
2018-03-21T12:52:46.757Z,11.97
2018-03-21T12:55:15.929Z,9.50
2018-03-21T12:57:45.091Z,14.43
2018-03-21T13:00:14.272Z,13.27
2018-03-21T13:02:43.432Z,10.50
2018-03-21T13:05:12.608Z,12.73
2018-03-21T13:07:41.787Z,13.60
2018-03-21T13:10:10.987Z,10.67
2018-03-21T13:12:40.145Z,12.77
2018-03-21T13:15:09.320Z,15.13
2018-03-21T13:17:38.480Z,16.13
2018-03-21T13:20:07.659Z,10.27
2018-03-21T13:22:36.830Z,11.33
2018-03-21T13:25:06.017Z,14.00
2018-03-21T13:27:35.167Z,13.03
2018-03-21T13:30:04.397Z,12.03
2018-03-21T13:32:33.536Z,13.13
2018-03-21T13:35:02.729Z,10.33
2018-03-21T13:37:31.900Z,9.97
2018-03-21T13:40:01.072Z,13.93
2018-03-21T13:42:30.233Z,12.07
2018-03-21T13:44:59.405Z,9.17
2018-03-21T13:47:28.556Z,12.93
2018-03-21T13:49:57.734Z,10.53
2018-03-21T13:52:26.913Z,10.20
2018-03-21T13:54:56.107Z,11.60
2018-03-21T13:57:25.256Z,9.40
2018-03-21T13:59:54.444Z,12.30
2018-03-21T14:02:23.624Z,12.27
2018-03-21T14:04:52.850Z,9.93
2018-03-21T14:07:21.980Z,13.80
2018-03-21T14:09:51.156Z,12.97
2018-03-21T14:12:20.304Z,9.30
2018-03-21T14:14:49.482Z,8.07
2018-03-21T14:17:18.660Z,11.80
2018-03-21T14:19:47.836Z,10.17
2018-03-21T14:22:17.012Z,10.73
2018-03-21T14:24:46.197Z,11.07
2018-03-21T14:27:15.360Z,10.53
2018-03-21T14:29:44.572Z,11.03
2018-03-21T14:32:13.730Z,10.77
2018-03-21T14:34:42.900Z,9.50
2018-03-21T14:37:12.062Z,8.53
2018-03-21T14:39:41.274Z,7.60
2018-03-21T14:42:10.445Z,15.90
2018-03-21T14:44:39.621Z,9.20
2018-03-21T14:47:08.787Z,12.53
2018-03-21T14:49:38.017Z,11.27
2018-03-21T14:52:07.177Z,11.17
2018-03-21T14:54:36.357Z,10.53
2018-03-21T14:57:05.525Z,11.83
2018-03-21T14:59:34.709Z,10.10
2018-03-21T15:02:03.864Z,9.93
2018-03-21T15:04:33.058Z,8.20
2018-03-21T15:07:02.220Z,8.63
2018-03-21T15:09:31.397Z,12.07
2018-03-21T15:12:00.575Z,14.37
2018-03-21T15:14:29.743Z,10.67
2018-03-21T15:16:58.979Z,20.30
2018-03-21T15:19:28.158Z,22.17
2018-03-21T15:21:57.328Z,9.07
2018-03-21T15:24:26.493Z,9.43
2018-03-21T15:26:55.690Z,11.93
2018-03-21T15:29:24.864Z,13.17
2018-03-21T15:31:54.052Z,12.20
2018-03-21T15:34:23.213Z,10.93
2018-03-21T15:36:52.398Z,9.67
2018-03-21T15:39:21.585Z,11.30
2018-03-21T15:41:50.781Z,12.47
2018-03-21T15:44:19.943Z,14.10
2018-03-21T15:46:49.121Z,10.73
2018-03-21T15:49:18.284Z,13.47
2018-03-21T15:51:47.481Z,12.77
2018-03-21T15:54:16.624Z,9.50
2018-03-21T15:56:45.806Z,17.03
2018-03-21T15:59:14.970Z,12.50
2018-03-21T16:01:44.167Z,16.13
2018-03-21T16:04:13.334Z,13.87
2018-03-21T16:06:42.515Z,16.50
2018-03-21T16:09:11.663Z,18.70
2018-03-21T16:11:40.841Z,16.50
2018-03-21T16:14:10.015Z,16.13
2018-03-21T16:16:39.224Z,17.00
2018-03-21T16:19:08.394Z,12.50
2018-03-21T16:21:37.581Z,15.00
2018-03-21T16:24:06.745Z,16.13
2018-03-21T16:26:35.919Z,13.60
2018-03-21T16:29:05.101Z,17.73
2018-03-21T16:31:34.280Z,15.10
2018-03-21T16:34:03.440Z,14.57
2018-03-21T16:36:32.632Z,13.13
2018-03-21T16:39:01.893Z,20.80
2018-03-21T16:41:31.071Z,17.53
2018-03-21T16:44:00.232Z,16.43
2018-03-21T16:46:29.417Z,21.77
2018-03-21T16:48:58.572Z,13.27
2018-03-21T16:51:27.752Z,13.47
2018-03-21T16:53:56.920Z,17.73
2018-03-21T16:56:26.104Z,14.77
2018-03-21T16:58:55.256Z,12.03
2018-03-21T17:01:24.430Z,9.27
2018-03-21T17:03:53.590Z,14.20
2018-03-21T17:06:22.764Z,10.77
2018-03-21T17:08:51.943Z,14.20
2018-03-21T17:11:21.128Z,14.93
2018-03-21T17:13:50.285Z,13.63
2018-03-21T17:16:19.488Z,18.27
2018-03-21T17:18:48.738Z,11.13
2018-03-21T17:21:17.872Z,18.37
2018-03-21T17:23:47.023Z,17.07
2018-03-21T17:26:16.200Z,15.40
2018-03-21T17:28:45.360Z,14.30
2018-03-21T17:31:14.548Z,16.07
2018-03-21T17:33:43.706Z,12.80
2018-03-21T17:36:12.888Z,12.17
2018-03-21T17:38:42.043Z,11.83
2018-03-21T17:41:11.227Z,13.33
2018-03-21T17:43:40.402Z,21.63
2018-03-21T17:46:09.593Z,14.77
2018-03-21T17:48:38.757Z,12.07
2018-03-21T17:51:07.939Z,15.43
2018-03-21T17:53:37.101Z,12.50
2018-03-21T17:56:06.277Z,13.47
2018-03-21T17:58:35.838Z,13.07
2018-03-21T18:01:05.016Z,8.67
2018-03-21T18:03:34.168Z,16.43
2018-03-21T18:06:03.354Z,12.13
2018-03-21T18:08:32.527Z,12.60
2018-03-21T18:11:01.713Z,16.10
2018-03-21T18:13:30.869Z,12.63
2018-03-21T18:16:00.069Z,14.27
2018-03-21T18:18:29.250Z,14.07
2018-03-21T18:20:58.441Z,14.90
2018-03-21T18:23:27.601Z,13.50
2018-03-21T18:25:56.793Z,11.63
2018-03-21T18:28:25.958Z,16.93
2018-03-21T18:30:55.973Z,10.50
2018-03-21T18:33:25.141Z,14.63
2018-03-21T18:35:54.342Z,13.07
2018-03-21T18:38:23.545Z,10.37
2018-03-21T18:40:52.737Z,10.73
2018-03-21T18:43:21.973Z,14.53
2018-03-21T18:45:51.141Z,10.50
2018-03-21T18:48:20.331Z,11.77
2018-03-21T18:50:49.529Z,12.73
2018-03-21T18:53:18.701Z,15.83
2018-03-21T18:55:47.876Z,11.20
2018-03-21T18:58:17.045Z,10.83
2018-03-21T19:00:46.229Z,10.30
2018-03-21T19:03:15.433Z,12.37
2018-03-21T19:05:44.596Z,10.53
2018-03-21T19:08:13.752Z,10.90
2018-03-21T19:10:42.932Z,13.63
2018-03-21T19:13:12.092Z,9.80
2018-03-21T19:15:41.259Z,12.57
2018-03-21T19:18:10.436Z,14.17
2018-03-21T19:20:39.604Z,18.20
2018-03-21T19:25:42.240Z,14.27
2018-03-21T19:28:11.431Z,11.23
2018-03-21T19:30:40.592Z,20.57
2018-03-21T19:33:09.773Z,12.67
2018-03-21T19:35:38.952Z,11.80
2018-03-21T19:38:08.136Z,12.57
2018-03-21T19:40:37.296Z,10.90
2018-03-21T19:43:06.485Z,10.83
2018-03-21T19:45:35.636Z,14.30
2018-03-21T19:48:04.852Z,16.27
2018-03-21T19:50:34.360Z,9.80
2018-03-21T19:53:03.640Z,11.93
2018-03-21T19:55:32.796Z,12.70
2018-03-21T19:58:01.981Z,16.17
2018-03-21T20:00:31.144Z,12.50
2018-03-21T20:03:00.333Z,17.83
2018-03-21T20:05:29.544Z,13.10
2018-03-21T20:07:58.737Z,16.07
2018-03-21T20:10:27.904Z,12.23
2018-03-21T20:12:57.162Z,13.97
2018-03-21T20:15:26.320Z,15.77
2018-03-21T20:17:55.501Z,17.00
2018-03-21T20:20:24.660Z,21.90
2018-03-21T20:22:53.849Z,19.27
2018-03-21T20:25:23.042Z,17.10
2018-03-21T20:27:52.220Z,20.10
2018-03-21T20:30:21.380Z,17.33
2018-03-21T20:32:50.668Z,19.50
2018-03-21T20:35:20.229Z,17.60
2018-03-21T20:37:49.500Z,17.27
2018-03-21T20:40:18.681Z,19.13
2018-03-21T20:42:47.890Z,25.13
2018-03-21T20:45:17.066Z,21.40
2018-03-21T20:47:46.246Z,22.67
2018-03-21T20:50:15.408Z,24.20
2018-03-21T20:52:44.597Z,23.07
2018-03-21T20:55:13.760Z,24.20
2018-03-21T20:57:42.941Z,28.50
2018-03-21T21:00:12.108Z,23.87
2018-03-21T21:02:41.297Z,23.87
2018-03-21T21:05:10.467Z,27.00
2018-03-21T21:07:39.648Z,25.23
2018-03-21T21:10:08.804Z,32.77
2018-03-21T21:12:38.008Z,27.07
2018-03-21T21:15:07.179Z,28.30
2018-03-21T21:17:36.502Z,38.70
2018-03-21T21:20:05.680Z,30.83
2018-03-21T21:22:34.863Z,38.57
2018-03-21T21:25:04.031Z,38.43
2018-03-21T21:27:33.212Z,33.07
2018-03-21T21:30:02.396Z,38.10
2018-03-21T21:32:31.643Z,35.90
2018-03-21T21:35:00.820Z,34.27
2018-03-21T21:37:30.033Z,36.07
2018-03-21T21:39:59.191Z,34.53
2018-03-21T21:42:28.429Z,38.90
2018-03-21T21:44:57.593Z,35.50
2018-03-21T21:47:26.784Z,46.10
2018-03-21T21:49:55.948Z,39.70
2018-03-21T21:52:25.128Z,38.50
2018-03-21T21:54:54.298Z,37.83
2018-03-21T21:57:23.485Z,40.90
2018-03-21T21:59:52.651Z,40.97
2018-03-21T22:02:21.848Z,38.93
2018-03-21T22:04:51.013Z,38.83
2018-03-21T22:07:20.206Z,38.30
2018-03-21T22:09:49.383Z,44.83
2018-03-21T22:12:23.545Z,40.30
2018-03-21T22:14:52.713Z,40.10
2018-03-21T22:17:22.105Z,49.20
2018-03-21T22:19:51.284Z,40.50
2018-03-21T22:22:20.475Z,42.37
2018-03-21T22:24:49.640Z,44.23
2018-03-21T22:27:19.103Z,43.50
2018-03-21T22:29:48.268Z,39.20
2018-03-21T22:32:17.452Z,39.50
2018-03-21T22:34:46.632Z,42.33
2018-03-21T22:37:15.825Z,42.73
2018-03-21T22:39:44.991Z,37.23
2018-03-21T22:42:14.187Z,37.97
2018-03-21T22:44:43.372Z,39.93
2018-03-21T22:47:13.492Z,36.93
2018-03-21T22:49:42.666Z,36.20
2018-03-21T22:52:12.704Z,35.20
2018-03-21T22:54:41.869Z,38.43
2018-03-21T22:57:11.052Z,41.33
2018-03-21T22:59:40.229Z,37.67
2018-03-21T23:02:09.442Z,36.27
2018-03-21T23:04:38.604Z,35.77
2018-03-21T23:07:08.899Z,38.77
2018-03-21T23:09:38.076Z,37.50
2018-03-21T23:12:07.265Z,29.67
2018-03-21T23:14:36.456Z,33.33
2018-03-21T23:17:05.636Z,36.40
2018-03-21T23:19:34.803Z,36.70
2018-03-21T23:22:03.995Z,35.90
2018-03-21T23:24:33.189Z,34.13
2018-03-21T23:27:02.353Z,37.33
2018-03-21T23:29:31.541Z,35.80
2018-03-21T23:32:00.714Z,31.23
2018-03-21T23:34:29.906Z,37.93
2018-03-21T23:37:01.329Z,27.57
2018-03-21T23:39:30.518Z,31.90
2018-03-21T23:41:59.758Z,31.07
2018-03-21T23:44:28.950Z,32.43
2018-03-21T23:46:58.117Z,30.47
2018-03-21T23:49:27.313Z,35.33
2018-03-21T23:51:56.485Z,27.83
2018-03-21T23:54:25.677Z,31.03
2018-03-21T23:56:54.886Z,29.40
2018-03-21T23:59:24.087Z,27.30
